Decoded Metar for KEKY ( in ) (IATA:) | Meteo·Mobile Aviation Weather
aviador You're here:

KEKY Decoded Metar

in
Report Time2018-12-17 14:33:00
UTC Time2018-12-17 14:53:53
Flight Rules lifr LIFR
Wind330° at 04 kt
W.Decomp.*RWY 05: 0.7 kt HW 3.9 kt LCW
W.Rank330° ranks 17
Current wind is below 330° avg. (5.9)
Visibility4828 m
Phenomena:Mist
Clouds:Overcast 002 Hf
Ceiling200 ft
Temp07°C
Dew Point07°C (100% RH)
AAT4.9°C
QNH1025 hPa
Raw Report
KEKY 171433Z AUTO 33004KT 3SM BR OVC002 07/07 A3027 RMK AO2
P0001=

Extra information for KEKY:More info

Social comments